sensor_id;sensor_type;location;lat;lon;timestamp;pressure;altitude;pressure_sealevel;temperature;humidity
53011;BME280;42803;55.762;38.084;2023-12-04T00:02:06;98300.38;;;-7.93;100.00
53011;BME280;42803;55.762;38.084;2023-12-04T00:04:36;98306.53;;;-7.91;100.00
53011;BME280;42803;55.762;38.084;2023-12-04T00:07:05;98312.97;;;-7.80;100.00
53011;BME280;42803;55.762;38.084;2023-12-04T00:09:35;98309.84;;;-7.85;100.00
53011;BME280;42803;55.762;38.084;2023-12-04T00:12:05;98315.03;;;-7.51;100.00
53011;BME280;42803;55.762;38.084;2023-12-04T00:14:34;98313.91;;;-7.53;100.00
53011;BME280;42803;55.762;38.084;2023-12-04T00:17:03;98321.13;;;-7.76;100.00
53011;BME280;42803;55.762;38.084;2023-12-04T00:19:32;98321.28;;;-7.81;100.00
53011;BME280;42803;55.762;38.084;2023-12-04T00:22:02;98324.06;;;-7.73;100.00
53011;BME280;42803;55.762;38.084;2023-12-04T00:24:31;98323.34;;;-7.92;100.00
53011;BME280;42803;55.762;38.084;2023-12-04T00:27:02;98323.72;;;-7.69;100.00
53011;BME280;42803;55.762;38.084;2023-12-04T00:29:32;98327.38;;;-7.67;100.00
53011;BME280;42803;55.762;38.084;2023-12-04T00:32:01;98334.66;;;-7.63;100.00
53011;BME280;42803;55.762;38.084;2023-12-04T00:34:30;98329.97;;;-7.79;100.00
53011;BME280;42803;55.762;38.084;2023-12-04T00:36:59;98336.72;;;-7.73;100.00
53011;BME280;42803;55.762;38.084;2023-12-04T00:39:29;98341.63;;;-7.74;100.00
53011;BME280;42803;55.762;38.084;2023-12-04T00:41:59;98347.38;;;-7.95;100.00
53011;BME280;42803;55.762;38.084;2023-12-04T00:44:29;98354.78;;;-7.77;100.00
53011;BME280;42803;55.762;38.084;2023-12-04T00:46:59;98351.94;;;-7.73;100.00
53011;BME280;42803;55.762;38.084;2023-12-04T00:49:28;98365.56;;;-7.85;100.00
53011;BME280;42803;55.762;38.084;2023-12-04T00:51:58;98357.91;;;-7.92;100.00
53011;BME280;42803;55.762;38.084;2023-12-04T00:54:27;98365.09;;;-7.95;100.00
53011;BME280;42803;55.762;38.084;2023-12-04T00:56:56;98360.75;;;-7.96;100.00
53011;BME280;42803;55.762;38.084;2023-12-04T00:59:26;98372.69;;;-7.95;100.00
53011;BME280;42803;55.762;38.084;2023-12-04T01:01:57;98373.56;;;-7.82;100.00
53011;BME280;42803;55.762;38.084;2023-12-04T01:04:26;98375.28;;;-8.08;100.00
53011;BME280;42803;55.762;38.084;2023-12-04T01:06:55;98383.31;;;-7.98;100.00
53011;BME280;42803;55.762;38.084;2023-12-04T01:09:24;98385.72;;;-8.25;100.00
53011;BME280;42803;55.762;38.084;2023-12-04T01:11:54;98386.34;;;-8.33;100.00
53011;BME280;42803;55.762;38.084;2023-12-04T01:14:23;98386.19;;;-8.35;100.00
53011;BME280;42803;55.762;38.084;2023-12-04T01:16:52;98377.03;;;-8.27;100.00
53011;BME280;42803;55.762;38.084;2023-12-04T01:19:23;98390.47;;;-8.21;100.00
53011;BME280;42803;55.762;38.084;2023-12-04T01:21:52;98394.22;;;-8.24;100.00
53011;BME280;42803;55.762;38.084;2023-12-04T01:24:22;98388.88;;;-8.20;100.00
53011;BME280;42803;55.762;38.084;2023-12-04T01:26:51;98396.66;;;-8.19;100.00
53011;BME280;42803;55.762;38.084;2023-12-04T01:29:20;98402.91;;;-8.10;100.00
53011;BME280;42803;55.762;38.084;2023-12-04T01:31:49;98404.41;;;-8.37;100.00
53011;BME280;42803;55.762;38.084;2023-12-04T01:34:18;98402.44;;;-8.20;100.00
53011;BME280;42803;55.762;38.084;2023-12-04T01:36:49;98409.59;;;-8.43;100.00
53011;BME280;42803;55.762;38.084;2023-12-04T01:39:18;98413.44;;;-8.52;100.00
53011;BME280;42803;55.762;38.084;2023-12-04T01:41:47;98419.31;;;-8.46;100.00
53011;BME280;42803;55.762;38.084;2023-12-04T01:44:16;98424.22;;;-8.27;100.00
53011;BME280;42803;55.762;38.084;2023-12-04T01:46:46;98422.75;;;-8.45;100.00
53011;BME280;42803;55.762;38.084;2023-12-04T01:49:15;98426.53;;;-8.62;100.00
53011;BME280;42803;55.762;38.084;2023-12-04T01:51:45;98423.47;;;-8.72;100.00
53011;BME280;42803;55.762;38.084;2023-12-04T01:54:17;98430.56;;;-8.69;100.00
53011;BME280;42803;55.762;38.084;2023-12-04T01:56:46;98434.41;;;-8.66;100.00
53011;BME280;42803;55.762;38.084;2023-12-04T01:59:15;98428.13;;;-8.75;100.00
53011;BME280;42803;55.762;38.084;2023-12-04T02:01:45;98432.25;;;-8.63;100.00
53011;BME280;42803;55.762;38.084;2023-12-04T02:04:14;98432.97;;;-8.51;100.00
53011;BME280;42803;55.762;38.084;2023-12-04T02:06:43;98437.34;;;-8.50;100.00
53011;BME280;42803;55.762;38.084;2023-12-04T02:09:13;98438.41;;;-8.35;100.00
53011;BME280;42803;55.762;38.084;2023-12-04T02:11:45;98448.56;;;-8.61;100.00
53011;BME280;42803;55.762;38.084;2023-12-04T02:14:14;98436.03;;;-8.53;100.00
53011;BME280;42803;55.762;38.084;2023-12-04T02:16:44;98437.25;;;-8.24;100.00
53011;BME280;42803;55.762;38.084;2023-12-04T02:19:14;98438.09;;;-8.31;100.00
53011;BME280;42803;55.762;38.084;2023-12-04T02:21:44;98439.38;;;-8.15;100.00
53011;BME280;42803;55.762;38.084;2023-12-04T02:24:14;98443.53;;;-8.15;100.00
53011;BME280;42803;55.762;38.084;2023-12-04T02:26:47;98452.56;;;-8.30;100.00
53011;BME280;42803;55.762;38.084;2023-12-04T02:29:23;98454.19;;;-8.30;100.00
53011;BME280;42803;55.762;38.084;2023-12-04T02:31:56;98457.88;;;-8.54;100.00
53011;BME280;42803;55.762;38.084;2023-12-04T02:34:27;98460.25;;;-8.36;100.00
53011;BME280;42803;55.762;38.084;2023-12-04T02:36:59;98458.03;;;-8.27;100.00
53011;BME280;42803;55.762;38.084;2023-12-04T02:39:31;98456.25;;;-8.41;100.00
53011;BME280;42803;55.762;38.084;2023-12-04T02:42:01;98462.03;;;-8.54;100.00
53011;BME280;42803;55.762;38.084;2023-12-04T02:44:30;98454.63;;;-8.53;100.00
53011;BME280;42803;55.762;38.084;2023-12-04T02:47:00;98453.63;;;-8.61;100.00
53011;BME280;42803;55.762;38.084;2023-12-04T02:49:29;98454.75;;;-8.46;100.00
53011;BME280;42803;55.762;38.084;2023-12-04T02:51:59;98468.00;;;-8.41;100.00
53011;BME280;42803;55.762;38.084;2023-12-04T02:54:28;98476.72;;;-8.39;100.00
53011;BME280;42803;55.762;38.084;2023-12-04T02:56:58;98468.41;;;-8.38;100.00
53011;BME280;42803;55.762;38.084;2023-12-04T02:59:28;98470.09;;;-8.44;100.00
53011;BME280;42803;55.762;38.084;2023-12-04T03:01:57;98462.84;;;-8.61;100.00
53011;BME280;42803;55.762;38.084;2023-12-04T03:04:27;98476.19;;;-8.62;100.00
53011;BME280;42803;55.762;38.084;2023-12-04T03:06:57;98476.28;;;-8.68;100.00
53011;BME280;42803;55.762;38.084;2023-12-04T03:09:27;98473.94;;;-8.66;100.00
53011;BME280;42803;55.762;38.084;2023-12-04T03:12:18;98488.22;;;-8.67;100.00
53011;BME280;42803;55.762;38.084;2023-12-04T03:14:47;98481.34;;;-8.68;100.00
53011;BME280;42803;55.762;38.084;2023-12-04T03:17:16;98490.78;;;-8.54;100.00
53011;BME280;42803;55.762;38.084;2023-12-04T03:19:45;98498.53;;;-8.52;100.00
53011;BME280;42803;55.762;38.084;2023-12-04T03:22:17;98504.59;;;-8.70;100.00
53011;BME280;42803;55.762;38.084;2023-12-04T03:24:46;98508.38;;;-8.61;100.00
53011;BME280;42803;55.762;38.084;2023-12-04T03:27:15;98523.63;;;-8.67;100.00
53011;BME280;42803;55.762;38.084;2023-12-04T03:29:46;98529.19;;;-8.69;100.00
53011;BME280;42803;55.762;38.084;2023-12-04T03:32:15;98532.81;;;-8.93;100.00
53011;BME280;42803;55.762;38.084;2023-12-04T03:34:44;98536.84;;;-8.88;100.00
53011;BME280;42803;55.762;38.084;2023-12-04T03:37:13;98555.75;;;-8.91;100.00
53011;BME280;42803;55.762;38.084;2023-12-04T03:39:42;98554.22;;;-8.96;100.00
53011;BME280;42803;55.762;38.084;2023-12-04T03:42:11;98553.94;;;-8.79;100.00
53011;BME280;42803;55.762;38.084;2023-12-04T03:44:41;98562.09;;;-8.56;100.00
53011;BME280;42803;55.762;38.084;2023-12-04T03:47:11;98565.22;;;-8.52;100.00
53011;BME280;42803;55.762;38.084;2023-12-04T03:49:40;98573.66;;;-8.46;100.00
53011;BME280;42803;55.762;38.084;2023-12-04T03:52:10;98581.03;;;-8.47;100.00
53011;BME280;42803;55.762;38.084;2023-12-04T03:54:39;98576.06;;;-8.40;100.00
53011;BME280;42803;55.762;38.084;2023-12-04T03:57:10;98591.44;;;-8.51;100.00
53011;BME280;42803;55.762;38.084;2023-12-04T03:59:39;98592.88;;;-8.53;100.00
53011;BME280;42803;55.762;38.084;2023-12-04T04:02:08;98603.41;;;-8.38;100.00
53011;BME280;42803;55.762;38.084;2023-12-04T04:04:39;98602.88;;;-8.35;100.00
53011;BME280;42803;55.762;38.084;2023-12-04T04:07:09;98603.72;;;-8.16;100.00
53011;BME280;42803;55.762;38.084;2023-12-04T04:09:38;98610.38;;;-8.17;100.00
53011;BME280;42803;55.762;38.084;2023-12-04T04:12:07;98617.56;;;-8.45;100.00
53011;BME280;42803;55.762;38.084;2023-12-04T04:14:37;98629.41;;;-8.26;100.00
53011;BME280;42803;55.762;38.084;2023-12-04T04:17:06;98631.81;;;-8.33;100.00
53011;BME280;42803;55.762;38.084;2023-12-04T04:19:35;98637.31;;;-8.43;100.00
53011;BME280;42803;55.762;38.084;2023-12-04T04:22:06;98650.28;;;-8.47;100.00
53011;BME280;42803;55.762;38.084;2023-12-04T04:24:36;98654.19;;;-8.36;100.00
53011;BME280;42803;55.762;38.084;2023-12-04T04:27:05;98655.84;;;-8.24;100.00
53011;BME280;42803;55.762;38.084;2023-12-04T04:29:34;98655.13;;;-8.23;100.00
53011;BME280;42803;55.762;38.084;2023-12-04T04:32:04;98664.38;;;-7.98;100.00
53011;BME280;42803;55.762;38.084;2023-12-04T04:34:33;98667.31;;;-7.95;100.00
53011;BME280;42803;55.762;38.084;2023-12-04T04:37:03;98669.00;;;-8.14;100.00
53011;BME280;42803;55.762;38.084;2023-12-04T04:39:34;98673.22;;;-8.32;100.00
53011;BME280;42803;55.762;38.084;2023-12-04T04:42:04;98681.84;;;-8.50;100.00
53011;BME280;42803;55.762;38.084;2023-12-04T04:44:33;98677.72;;;-8.37;100.00
53011;BME280;42803;55.762;38.084;2023-12-04T04:47:03;98680.22;;;-8.24;100.00
53011;BME280;42803;55.762;38.084;2023-12-04T04:49:32;98693.16;;;-8.28;100.00
53011;BME280;42803;55.762;38.084;2023-12-04T04:52:02;98691.47;;;-8.35;100.00
53011;BME280;42803;55.762;38.084;2023-12-04T04:54:31;98691.47;;;-8.35;100.00
53011;BME280;42803;55.762;38.084;2023-12-04T04:57:03;98689.25;;;-8.14;100.00
53011;BME280;42803;55.762;38.084;2023-12-04T04:59:32;98699.09;;;-8.10;100.00
53011;BME280;42803;55.762;38.084;2023-12-04T05:02:02;98705.53;;;-7.93;100.00
53011;BME280;42803;55.762;38.084;2023-12-04T05:04:31;98705.00;;;-8.03;100.00
53011;BME280;42803;55.762;38.084;2023-12-04T05:07:01;98710.66;;;-8.12;100.00
53011;BME280;42803;55.762;38.084;2023-12-04T05:09:30;98698.22;;;-7.97;100.00
53011;BME280;42803;55.762;38.084;2023-12-04T05:11:59;98714.09;;;-7.98;100.00
53011;BME280;42803;55.762;38.084;2023-12-04T05:14:30;98711.44;;;-8.18;100.00
53011;BME280;42803;55.762;38.084;2023-12-04T05:16:59;98728.84;;;-8.14;100.00
53011;BME280;42803;55.762;38.084;2023-12-04T05:19:28;98722.03;;;-8.21;100.00
53011;BME280;42803;55.762;38.084;2023-12-04T05:21:58;98732.00;;;-8.10;100.00
53011;BME280;42803;55.762;38.084;2023-12-04T05:24:27;98722.88;;;-8.15;100.00
53011;BME280;42803;55.762;38.084;2023-12-04T05:26:56;98726.56;;;-8.13;100.00
53011;BME280;42803;55.762;38.084;2023-12-04T05:29:25;98735.56;;;-8.02;100.00
53011;BME280;42803;55.762;38.084;2023-12-04T05:31:56;98737.31;;;-7.95;100.00
53011;BME280;42803;55.762;38.084;2023-12-04T05:34:26;98742.09;;;-7.91;100.00
53011;BME280;42803;55.762;38.084;2023-12-04T05:36:55;98740.63;;;-8.02;100.00
53011;BME280;42803;55.762;38.084;2023-12-04T05:39:24;98751.34;;;-8.10;100.00
53011;BME280;42803;55.762;38.084;2023-12-04T05:41:53;98748.63;;;-8.12;100.00
53011;BME280;42803;55.762;38.084;2023-12-04T05:44:22;98753.16;;;-8.09;100.00
53011;BME280;42803;55.762;38.084;2023-12-04T05:46:52;98761.91;;;-8.07;100.00
53011;BME280;42803;55.762;38.084;2023-12-04T05:49:22;98763.09;;;-8.11;100.00
53011;BME280;42803;55.762;38.084;2023-12-04T05:51:52;98765.16;;;-8.08;100.00
53011;BME280;42803;55.762;38.084;2023-12-04T05:54:21;98772.22;;;-8.05;100.00
53011;BME280;42803;55.762;38.084;2023-12-04T05:56:50;98766.19;;;-7.88;100.00
53011;BME280;42803;55.762;38.084;2023-12-04T05:59:20;98778.31;;;-7.98;100.00
53011;BME280;42803;55.762;38.084;2023-12-04T06:01:49;98784.09;;;-7.99;100.00
53011;BME280;42803;55.762;38.084;2023-12-04T06:04:18;98779.81;;;-8.05;100.00
53011;BME280;42803;55.762;38.084;2023-12-04T06:06:49;98780.81;;;-8.11;100.00
53011;BME280;42803;55.762;38.084;2023-12-04T06:09:18;98797.63;;;-7.80;100.00
53011;BME280;42803;55.762;38.084;2023-12-04T06:11:48;98786.56;;;-7.93;100.00
53011;BME280;42803;55.762;38.084;2023-12-04T06:14:17;98801.63;;;-8.00;100.00
53011;BME280;42803;55.762;38.084;2023-12-04T06:16:47;98798.97;;;-8.07;100.00
53011;BME280;42803;55.762;38.084;2023-12-04T06:19:16;98804.03;;;-8.07;100.00
53011;BME280;42803;55.762;38.084;2023-12-04T06:21:45;98815.34;;;-7.80;100.00
53011;BME280;42803;55.762;38.084;2023-12-04T06:24:17;98816.00;;;-7.94;100.00
53011;BME280;42803;55.762;38.084;2023-12-04T06:26:49;98808.22;;;-7.95;100.00
53011;BME280;42803;55.762;38.084;2023-12-04T06:29:19;98818.09;;;-8.10;100.00
53011;BME280;42803;55.762;38.084;2023-12-04T06:31:49;98814.97;;;-8.01;100.00
53011;BME280;42803;55.762;38.084;2023-12-04T06:34:20;98813.28;;;-7.95;100.00
53011;BME280;42803;55.762;38.084;2023-12-04T06:36:50;98827.41;;;-7.85;100.00
53011;BME280;42803;55.762;38.084;2023-12-04T06:39:23;98827.31;;;-7.79;100.00
53011;BME280;42803;55.762;38.084;2023-12-04T06:41:54;98825.50;;;-7.80;100.00
53011;BME280;42803;55.762;38.084;2023-12-04T06:44:24;98839.59;;;-7.69;100.00
53011;BME280;42803;55.762;38.084;2023-12-04T06:46:54;98833.63;;;-7.70;100.00
53011;BME280;42803;55.762;38.084;2023-12-04T06:49:25;98839.38;;;-7.71;100.00
53011;BME280;42803;55.762;38.084;2023-12-04T06:51:58;98843.91;;;-7.63;100.00
53011;BME280;42803;55.762;38.084;2023-12-04T06:54:29;98840.06;;;-7.53;100.00
53011;BME280;42803;55.762;38.084;2023-12-04T06:56:58;98845.59;;;-7.69;100.00
53011;BME280;42803;55.762;38.084;2023-12-04T06:59:28;98858.53;;;-7.73;100.00
53011;BME280;42803;55.762;38.084;2023-12-04T07:01:57;98853.09;;;-7.63;100.00
53011;BME280;42803;55.762;38.084;2023-12-04T07:04:28;98848.44;;;-7.60;100.00
53011;BME280;42803;55.762;38.084;2023-12-04T07:06:58;98855.78;;;-7.43;100.00
53011;BME280;42803;55.762;38.084;2023-12-04T07:09:34;98872.50;;;-7.51;100.00
53011;BME280;42803;55.762;38.084;2023-12-04T07:12:05;98873.41;;;-7.50;100.00
53011;BME280;42803;55.762;38.084;2023-12-04T07:14:34;98874.56;;;-7.36;100.00
53011;BME280;42803;55.762;38.084;2023-12-04T07:17:04;98871.94;;;-7.30;100.00
53011;BME280;42803;55.762;38.084;2023-12-04T07:19:33;98885.13;;;-7.32;100.00
53011;BME280;42803;55.762;38.084;2023-12-04T07:22:03;98876.94;;;-7.24;100.00
53011;BME280;42803;55.762;38.084;2023-12-04T07:24:34;98886.41;;;-7.29;100.00
53011;BME280;42803;55.762;38.084;2023-12-04T07:27:04;98886.16;;;-7.25;100.00
53011;BME280;42803;55.762;38.084;2023-12-04T07:29:34;98897.03;;;-7.44;100.00
53011;BME280;42803;55.762;38.084;2023-12-04T07:32:06;98904.16;;;-7.42;100.00
53011;BME280;42803;55.762;38.084;2023-12-04T07:34:35;98899.84;;;-7.48;100.00
53011;BME280;42803;55.762;38.084;2023-12-04T07:37:05;98911.63;;;-7.49;100.00
53011;BME280;42803;55.762;38.084;2023-12-04T07:39:37;98914.22;;;-7.36;100.00
53011;BME280;42803;55.762;38.084;2023-12-04T07:42:06;98921.00;;;-7.29;100.00
53011;BME280;42803;55.762;38.084;2023-12-04T07:44:40;98909.78;;;-7.19;100.00
53011;BME280;42803;55.762;38.084;2023-12-04T07:47:09;98920.41;;;-7.21;100.00
53011;BME280;42803;55.762;38.084;2023-12-04T07:49:38;98918.41;;;-7.24;100.00
53011;BME280;42803;55.762;38.084;2023-12-04T07:52:08;98931.50;;;-7.21;100.00
53011;BME280;42803;55.762;38.084;2023-12-04T07:54:41;98928.97;;;-7.21;100.00
53011;BME280;42803;55.762;38.084;2023-12-04T07:57:10;98931.63;;;-7.01;100.00
53011;BME280;42803;55.762;38.084;2023-12-04T07:59:40;98944.16;;;-7.21;100.00
53011;BME280;42803;55.762;38.084;2023-12-04T08:02:10;98944.69;;;-7.11;100.00
53011;BME280;42803;55.762;38.084;2023-12-04T08:04:39;98949.31;;;-7.26;100.00
53011;BME280;42803;55.762;38.084;2023-12-04T08:07:08;98957.00;;;-7.32;100.00
53011;BME280;42803;55.762;38.084;2023-12-04T08:09:38;98934.19;;;-7.32;100.00
53011;BME280;42803;55.762;38.084;2023-12-04T08:12:09;98964.31;;;-7.28;100.00
53011;BME280;42803;55.762;38.084;2023-12-04T08:14:38;98954.09;;;-7.22;100.00
53011;BME280;42803;55.762;38.084;2023-12-04T08:17:08;98962.31;;;-7.18;100.00
53011;BME280;42803;55.762;38.084;2023-12-04T08:19:37;98957.75;;;-7.20;100.00
53011;BME280;42803;55.762;38.084;2023-12-04T08:22:07;98962.31;;;-7.18;100.00
53011;BME280;42803;55.762;38.084;2023-12-04T08:24:36;98963.31;;;-7.23;100.00
53011;BME280;42803;55.762;38.084;2023-12-04T08:27:06;98972.16;;;-7.14;100.00
53011;BME280;42803;55.762;38.084;2023-12-04T08:29:39;98969.44;;;-7.02;100.00
53011;BME280;42803;55.762;38.084;2023-12-04T08:32:09;98960.19;;;-7.15;100.00
53011;BME280;42803;55.762;38.084;2023-12-04T08:34:38;98974.88;;;-7.25;100.00
53011;BME280;42803;55.762;38.084;2023-12-04T08:37:07;98980.50;;;-7.33;100.00
53011;BME280;42803;55.762;38.084;2023-12-04T08:39:37;98980.16;;;-7.23;100.00
53011;BME280;42803;55.762;38.084;2023-12-04T08:42:06;98990.59;;;-7.27;100.00
53011;BME280;42803;55.762;38.084;2023-12-04T08:44:45;98965.00;;;-7.29;100.00
53011;BME280;42803;55.762;38.084;2023-12-04T08:47:15;98990.28;;;-7.23;100.00
53011;BME280;42803;55.762;38.084;2023-12-04T08:49:44;98980.88;;;-7.24;100.00
53011;BME280;42803;55.762;38.084;2023-12-04T08:52:16;98987.56;;;-7.25;100.00
53011;BME280;42803;55.762;38.084;2023-12-04T08:54:45;98997.44;;;-7.39;100.00
53011;BME280;42803;55.762;38.084;2023-12-04T08:57:16;99001.44;;;-7.28;100.00
53011;BME280;42803;55.762;38.084;2023-12-04T08:59:54;99000.41;;;-7.36;100.00
53011;BME280;42803;55.762;38.084;2023-12-04T09:02:23;99011.78;;;-7.27;100.00
53011;BME280;42803;55.762;38.084;2023-12-04T09:04:52;99012.41;;;-7.41;100.00
53011;BME280;42803;55.762;38.084;2023-12-04T09:07:22;99026.84;;;-7.52;100.00
53011;BME280;42803;55.762;38.084;2023-12-04T09:09:54;99016.16;;;-7.44;100.00
53011;BME280;42803;55.762;38.084;2023-12-04T09:12:23;99016.66;;;-7.47;100.00
53011;BME280;42803;55.762;38.084;2023-12-04T09:14:58;99021.78;;;-7.52;100.00
53011;BME280;42803;55.762;38.084;2023-12-04T09:17:39;99017.16;;;-7.68;100.00
53011;BME280;42803;55.762;38.084;2023-12-04T09:20:10;99027.81;;;-7.70;100.00
53011;BME280;42803;55.762;38.084;2023-12-04T09:22:39;99019.63;;;-7.62;100.00
53011;BME280;42803;55.762;38.084;2023-12-04T09:25:20;99016.16;;;-7.44;100.00
53011;BME280;42803;55.762;38.084;2023-12-04T09:27:49;99033.28;;;-7.49;100.00
53011;BME280;42803;55.762;38.084;2023-12-04T09:30:20;99033.84;;;-7.57;100.00
53011;BME280;42803;55.762;38.084;2023-12-04T09:32:49;99039.63;;;-7.40;100.00
53011;BME280;42803;55.762;38.084;2023-12-04T09:35:19;99051.00;;;-7.49;100.00
53011;BME280;42803;55.762;38.084;2023-12-04T09:37:48;99045.47;;;-7.46;100.00
53011;BME280;42803;55.762;38.084;2023-12-04T09:40:18;99043.91;;;-7.51;100.00
53011;BME280;42803;55.762;38.084;2023-12-04T09:42:48;99045.03;;;-7.49;100.00
53011;BME280;42803;55.762;38.084;2023-12-04T09:45:21;99040.72;;;-7.56;100.00
53011;BME280;42803;55.762;38.084;2023-12-04T09:47:53;99051.78;;;-7.55;100.00
53011;BME280;42803;55.762;38.084;2023-12-04T09:50:23;99061.84;;;-7.50;100.00
53011;BME280;42803;55.762;38.084;2023-12-04T09:52:52;99059.38;;;-7.37;100.00
53011;BME280;42803;55.762;38.084;2023-12-04T09:55:22;99058.19;;;-7.52;100.00
53011;BME280;42803;55.762;38.084;2023-12-04T09:57:51;99066.16;;;-7.62;100.00
53011;BME280;42803;55.762;38.084;2023-12-04T10:00:23;99062.63;;;-7.56;100.00
53011;BME280;42803;55.762;38.084;2023-12-04T10:02:54;99071.06;;;-7.69;100.00
53011;BME280;42803;55.762;38.084;2023-12-04T10:05:24;99072.59;;;-7.64;100.00
53011;BME280;42803;55.762;38.084;2023-12-04T10:07:53;99083.66;;;-7.63;100.00
53011;BME280;42803;55.762;38.084;2023-12-04T10:10:24;99078.97;;;-7.54;100.00
53011;BME280;42803;55.762;38.084;2023-12-04T10:12:53;99082.91;;;-7.56;100.00
53011;BME280;42803;55.762;38.084;2023-12-04T10:15:45;99078.88;;;-7.49;100.00
53011;BME280;42803;55.762;38.084;2023-12-04T10:18:24;99087.53;;;-7.60;100.00
53011;BME280;42803;55.762;38.084;2023-12-04T10:20:55;99099.09;;;-7.62;100.00
53011;BME280;42803;55.762;38.084;2023-12-04T10:23:37;99104.00;;;-7.69;100.00
53011;BME280;42803;55.762;38.084;2023-12-04T10:26:07;99107.28;;;-7.75;100.00
53011;BME280;42803;55.762;38.084;2023-12-04T10:28:37;99122.41;;;-7.88;100.00
53011;BME280;42803;55.762;38.084;2023-12-04T10:31:08;99120.34;;;-7.91;100.00
53011;BME280;42803;55.762;38.084;2023-12-04T10:33:38;99116.63;;;-7.87;100.00
53011;BME280;42803;55.762;38.084;2023-12-04T10:36:11;99130.00;;;-7.88;100.00
53011;BME280;42803;55.762;38.084;2023-12-04T10:38:41;99133.66;;;-7.86;100.00
53011;BME280;42803;55.762;38.084;2023-12-04T10:41:12;99133.13;;;-7.78;100.00
53011;BME280;42803;55.762;38.084;2023-12-04T10:43:47;99152.41;;;-7.73;100.00
53011;BME280;42803;55.762;38.084;2023-12-04T10:46:31;99143.63;;;-7.69;100.00
53011;BME280;42803;55.762;38.084;2023-12-04T10:49:00;99147.28;;;-7.67;100.00
53011;BME280;42803;55.762;38.084;2023-12-04T10:51:34;99150.03;;;-7.66;100.00
53011;BME280;42803;55.762;38.084;2023-12-04T10:54:04;99158.56;;;-7.65;100.00
53011;BME280;42803;55.762;38.084;2023-12-04T10:56:36;99159.19;;;-7.61;100.00
53011;BME280;42803;55.762;38.084;2023-12-04T10:59:10;99163.22;;;-7.50;100.00
53011;BME280;42803;55.762;38.084;2023-12-04T11:01:42;99161.94;;;-7.35;100.00
53011;BME280;42803;55.762;38.084;2023-12-04T11:04:17;99159.25;;;-7.24;100.00
53011;BME280;42803;55.762;38.084;2023-12-04T11:06:51;99155.59;;;-7.26;100.00
53011;BME280;42803;55.762;38.084;2023-12-04T11:09:21;99155.09;;;-7.23;100.00
53011;BME280;42803;55.762;38.084;2023-12-04T11:11:57;99160.09;;;-7.18;100.00
53011;BME280;42803;55.762;38.084;2023-12-04T11:14:31;99171.22;;;-7.23;100.00
53011;BME280;42803;55.762;38.084;2023-12-04T11:17:08;99161.50;;;-7.20;100.00
53011;BME280;42803;55.762;38.084;2023-12-04T11:19:47;99179.47;;;-7.18;100.00
53011;BME280;42803;55.762;38.084;2023-12-04T11:22:19;99177.22;;;-7.22;100.00
53011;BME280;42803;55.762;38.084;2023-12-04T11:24:51;99171.72;;;-7.25;100.00
53011;BME280;42803;55.762;38.084;2023-12-04T11:27:20;99184.66;;;-7.29;100.00
53011;BME280;42803;55.762;38.084;2023-12-04T11:29:52;99192.06;;;-7.31;100.00
53011;BME280;42803;55.762;38.084;2023-12-04T11:32:24;99188.81;;;-7.30;100.00
53011;BME280;42803;55.762;38.084;2023-12-04T11:34:55;99192.66;;;-7.21;100.00
53011;BME280;42803;55.762;38.084;2023-12-04T11:37:25;99188.81;;;-7.30;100.00
53011;BME280;42803;55.762;38.084;2023-12-04T11:39:55;99192.63;;;-7.39;100.00
53011;BME280;42803;55.762;38.084;2023-12-04T11:42:26;99194.00;;;-7.41;100.00
53011;BME280;42803;55.762;38.084;2023-12-04T11:44:57;99192.19;;;-7.42;100.00
53011;BME280;42803;55.762;38.084;2023-12-04T11:47:29;99200.44;;;-7.38;100.00
53011;BME280;42803;55.762;38.084;2023-12-04T11:50:00;99202.75;;;-7.39;100.00
53011;BME280;42803;55.762;38.084;2023-12-04T11:52:32;99214.72;;;-7.38;100.00
53011;BME280;42803;55.762;38.084;2023-12-04T11:55:04;99206.53;;;-7.48;100.00
53011;BME280;42803;55.762;38.084;2023-12-04T11:57:36;99222.44;;;-7.49;100.00
53011;BME280;42803;55.762;38.084;2023-12-04T12:00:22;99224.06;;;-7.50;100.00
53011;BME280;42803;55.762;38.084;2023-12-04T12:03:13;99226.13;;;-7.47;100.00
53011;BME280;42803;55.762;38.084;2023-12-04T12:05:50;99223.06;;;-7.45;100.00
53011;BME280;42803;55.762;38.084;2023-12-04T12:08:22;99225.63;;;-7.45;100.00
53011;BME280;42803;55.762;38.084;2023-12-04T12:10:52;99219.03;;;-7.55;100.00
53011;BME280;42803;55.762;38.084;2023-12-04T12:13:23;99226.78;;;-7.48;100.00
53011;BME280;42803;55.762;38.084;2023-12-04T12:15:53;99241.63;;;-7.57;100.00
53011;BME280;42803;55.762;38.084;2023-12-04T12:18:24;99241.16;;;-7.54;100.00
53011;BME280;42803;55.762;38.084;2023-12-04T12:20:55;99241.91;;;-7.37;100.00
53011;BME280;42803;55.762;38.084;2023-12-04T12:23:26;99247.94;;;-7.42;100.00
53011;BME280;42803;55.762;38.084;2023-12-04T12:25:57;99242.97;;;-7.53;100.00
53011;BME280;42803;55.762;38.084;2023-12-04T12:28:29;99237.22;;;-7.52;100.00
53011;BME280;42803;55.762;38.084;2023-12-04T12:31:02;99249.94;;;-7.58;100.00
53011;BME280;42803;55.762;38.084;2023-12-04T12:33:33;99255.94;;;-7.57;100.00
53011;BME280;42803;55.762;38.084;2023-12-04T12:36:03;99250.41;;;-7.61;100.00
53011;BME280;42803;55.762;38.084;2023-12-04T12:43:42;99259.00;;;-7.66;100.00
53011;BME280;42803;55.762;38.084;2023-12-04T12:46:12;99256.41;;;-7.60;100.00
53011;BME280;42803;55.762;38.084;2023-12-04T12:48:43;99251.13;;;-7.62;100.00
53011;BME280;42803;55.762;38.084;2023-12-04T12:51:13;99248.88;;;-7.66;100.00
53011;BME280;42803;55.762;38.084;2023-12-04T12:53:43;99254.78;;;-7.60;100.00
53011;BME280;42803;55.762;38.084;2023-12-04T12:56:18;99247.03;;;-7.67;100.00
53011;BME280;42803;55.762;38.084;2023-12-04T12:58:49;99264.00;;;-7.60;100.00
53011;BME280;42803;55.762;38.084;2023-12-04T13:01:19;99259.66;;;-7.61;100.00
53011;BME280;42803;55.762;38.084;2023-12-04T13:03:50;99264.34;;;-7.75;100.00